sensor_id;sensor_type;location;lat;lon;timestamp;pressure;altitude;pressure_sealevel;temperature;humidity
21803;BME280;18591;47.080;22.214;2023-08-17T00:01:21;99844.09;;;25.03;56.92
21803;BME280;18591;47.080;22.214;2023-08-17T00:03:23;99836.16;;;25.00;57.12
21803;BME280;18591;47.080;22.214;2023-08-17T00:05:26;99833.53;;;24.98;57.01
21803;BME280;18591;47.080;22.214;2023-08-17T00:07:28;99832.69;;;24.98;57.01
21803;BME280;18591;47.080;22.214;2023-08-17T00:09:31;99827.31;;;24.96;56.85
21803;BME280;18591;47.080;22.214;2023-08-17T00:11:33;99825.44;;;24.97;57.21
21803;BME280;18591;47.080;22.214;2023-08-17T00:13:35;99834.13;;;24.92;56.94
21803;BME280;18591;47.080;22.214;2023-08-17T00:15:38;99829.63;;;24.91;56.88
21803;BME280;18591;47.080;22.214;2023-08-17T00:17:40;99830.50;;;24.92;56.67
21803;BME280;18591;47.080;22.214;2023-08-17T00:19:42;99828.75;;;24.91;56.81
21803;BME280;18591;47.080;22.214;2023-08-17T00:21:45;99816.91;;;24.90;57.11
21803;BME280;18591;47.080;22.214;2023-08-17T00:23:47;99821.69;;;24.88;57.36
21803;BME280;18591;47.080;22.214;2023-08-17T00:25:50;99819.09;;;24.87;57.61
21803;BME280;18591;47.080;22.214;2023-08-17T00:27:52;99814.75;;;24.84;57.34
21803;BME280;18591;47.080;22.214;2023-08-17T00:29:55;99806.50;;;24.84;57.19
21803;BME280;18591;47.080;22.214;2023-08-17T00:32:00;99804.75;;;24.83;56.97
21803;BME280;18591;47.080;22.214;2023-08-17T00:34:03;99805.59;;;24.84;57.31
21803;BME280;18591;47.080;22.214;2023-08-17T00:36:05;99809.50;;;24.81;57.05
21803;BME280;18591;47.080;22.214;2023-08-17T00:38:08;99792.31;;;24.79;57.02
21803;BME280;18591;47.080;22.214;2023-08-17T00:40:11;99788.00;;;24.76;57.23
21803;BME280;18591;47.080;22.214;2023-08-17T00:42:13;99799.84;;;24.77;57.25
21803;BME280;18591;47.080;22.214;2023-08-17T00:44:16;99792.75;;;24.74;57.40
21803;BME280;18591;47.080;22.214;2023-08-17T00:46:18;99801.13;;;24.73;57.35
21803;BME280;18591;47.080;22.214;2023-08-17T00:48:24;99803.88;;;24.73;57.25
21803;BME280;18591;47.080;22.214;2023-08-17T00:50:28;99812.13;;;24.73;57.67
21803;BME280;18591;47.080;22.214;2023-08-17T00:52:32;99812.41;;;24.70;57.40
21803;BME280;18591;47.080;22.214;2023-08-17T00:54:35;99817.16;;;24.68;57.33
21803;BME280;18591;47.080;22.214;2023-08-17T00:56:37;99810.94;;;24.66;57.35
21803;BME280;18591;47.080;22.214;2023-08-17T00:58:40;99811.97;;;24.65;57.40
21803;BME280;18591;47.080;22.214;2023-08-17T01:00:43;99812.81;;;24.65;57.83
21803;BME280;18591;47.080;22.214;2023-08-17T01:02:46;99817.59;;;24.63;57.62
21803;BME280;18591;47.080;22.214;2023-08-17T01:04:51;99807.63;;;24.62;57.93
21803;BME280;18591;47.080;22.214;2023-08-17T01:06:54;99808.78;;;24.60;57.77
21803;BME280;18591;47.080;22.214;2023-08-17T01:08:56;99803.28;;;24.60;57.82
21803;BME280;18591;47.080;22.214;2023-08-17T01:13:31;99795.88;;;24.50;57.57
21803;BME280;18591;47.080;22.214;2023-08-17T01:15:40;99797.75;;;24.50;57.78
21803;BME280;18591;47.080;22.214;2023-08-17T01:19:57;99786.34;;;24.45;57.85
21803;BME280;18591;47.080;22.214;2023-08-17T01:22:03;99782.81;;;24.43;57.95
21803;BME280;18591;47.080;22.214;2023-08-17T01:24:07;99782.69;;;24.44;57.86
21803;BME280;18591;47.080;22.214;2023-08-17T01:26:10;99776.34;;;24.44;57.74
21803;BME280;18591;47.080;22.214;2023-08-17T01:28:12;99770.97;;;24.42;57.97
21803;BME280;18591;47.080;22.214;2023-08-17T01:30:16;99771.84;;;24.43;58.08
21803;BME280;18591;47.080;22.214;2023-08-17T01:32:28;99772.53;;;24.35;57.79
21803;BME280;18591;47.080;22.214;2023-08-17T01:34:36;99778.63;;;24.39;57.69
21803;BME280;18591;47.080;22.214;2023-08-17T01:36:45;99770.53;;;24.37;58.65
21803;BME280;18591;47.080;22.214;2023-08-17T01:38:51;99768.38;;;24.31;59.35
21803;BME280;18591;47.080;22.214;2023-08-17T01:40:55;99771.97;;;24.31;59.07
21803;BME280;18591;47.080;22.214;2023-08-17T01:43:00;99776.44;;;24.32;59.29
21803;BME280;18591;47.080;22.214;2023-08-17T01:45:03;99777.34;;;24.33;59.55
21803;BME280;18591;47.080;22.214;2023-08-17T01:47:06;99785.56;;;24.33;59.35
21803;BME280;18591;47.080;22.214;2023-08-17T01:49:08;99787.16;;;24.36;59.78
21803;BME280;18591;47.080;22.214;2023-08-17T01:51:17;99772.53;;;24.35;60.30
21803;BME280;18591;47.080;22.214;2023-08-17T01:53:21;99766.63;;;24.40;59.87
21803;BME280;18591;47.080;22.214;2023-08-17T01:55:24;99769.38;;;24.40;60.80
21803;BME280;18591;47.080;22.214;2023-08-17T01:57:26;99764.50;;;24.43;60.79
21803;BME280;18591;47.080;22.214;2023-08-17T01:59:29;99757.13;;;24.44;60.47
21803;BME280;18591;47.080;22.214;2023-08-17T02:01:31;99763.03;;;24.39;60.75
21803;BME280;18591;47.080;22.214;2023-08-17T02:03:34;99765.03;;;24.37;60.53
21803;BME280;18591;47.080;22.214;2023-08-17T02:05:36;99766.78;;;24.38;60.43
21803;BME280;18591;47.080;22.214;2023-08-17T02:07:39;99762.00;;;24.40;60.83
21803;BME280;18591;47.080;22.214;2023-08-17T02:09:42;99765.66;;;24.41;60.78
21803;BME280;18591;47.080;22.214;2023-08-17T02:11:44;99757.41;;;24.41;60.25
21803;BME280;18591;47.080;22.214;2023-08-17T02:13:46;99766.34;;;24.43;60.35
21803;BME280;18591;47.080;22.214;2023-08-17T02:15:49;99758.69;;;24.37;60.25
21803;BME280;18591;47.080;22.214;2023-08-17T02:17:51;99750.56;;;24.35;60.05
21803;BME280;18591;47.080;22.214;2023-08-17T02:19:54;99748.84;;;24.34;59.94
21803;BME280;18591;47.080;22.214;2023-08-17T02:21:56;99753.47;;;24.33;59.84
21803;BME280;18591;47.080;22.214;2023-08-17T02:23:59;99757.94;;;24.34;59.72
21803;BME280;18591;47.080;22.214;2023-08-17T02:26:01;99756.06;;;24.35;59.89
21803;BME280;18591;47.080;22.214;2023-08-17T02:28:06;99766.91;;;24.37;60.01
21803;BME280;18591;47.080;22.214;2023-08-17T02:30:09;99774.44;;;24.34;59.42
21803;BME280;18591;47.080;22.214;2023-08-17T02:32:11;99773.56;;;24.34;59.54
21803;BME280;18591;47.080;22.214;2023-08-17T02:34:13;99776.44;;;24.32;59.82
21803;BME280;18591;47.080;22.214;2023-08-17T02:36:16;99773.56;;;24.34;60.50
21803;BME280;18591;47.080;22.214;2023-08-17T02:38:18;99775.13;;;24.27;60.76
21803;BME280;18591;47.080;22.214;2023-08-17T02:40:21;99767.75;;;24.27;61.16
21803;BME280;18591;47.080;22.214;2023-08-17T02:42:23;99769.81;;;24.25;61.10
21803;BME280;18591;47.080;22.214;2023-08-17T02:44:26;99771.38;;;24.18;61.72
21803;BME280;18591;47.080;22.214;2023-08-17T02:46:30;99768.19;;;24.23;61.42
21803;BME280;18591;47.080;22.214;2023-08-17T02:48:33;99770.06;;;24.22;61.39
21803;BME280;18591;47.080;22.214;2023-08-17T02:50:36;99760.84;;;24.23;61.51
21803;BME280;18591;47.080;22.214;2023-08-17T02:52:38;99758.09;;;24.23;61.32
21803;BME280;18591;47.080;22.214;2023-08-17T02:54:40;99760.66;;;24.25;61.00
21803;BME280;18591;47.080;22.214;2023-08-17T02:56:44;99767.06;;;24.25;60.80
21803;BME280;18591;47.080;22.214;2023-08-17T02:58:46;99768.47;;;24.20;60.63
21803;BME280;18591;47.080;22.214;2023-08-17T03:00:51;99768.63;;;24.18;60.27
21803;BME280;18591;47.080;22.214;2023-08-17T03:02:54;99767.75;;;24.18;60.50
21803;BME280;18591;47.080;22.214;2023-08-17T03:04:57;99756.63;;;24.19;60.70
21803;BME280;18591;47.080;22.214;2023-08-17T03:06:59;99761.38;;;24.17;60.39
21803;BME280;18591;47.080;22.214;2023-08-17T03:09:02;99744.19;;;24.15;60.25
21803;BME280;18591;47.080;22.214;2023-08-17T03:11:04;99738.09;;;24.11;60.53
21803;BME280;18591;47.080;22.214;2023-08-17T03:13:09;99758.47;;;24.09;60.46
21803;BME280;18591;47.080;22.214;2023-08-17T03:15:11;99768.88;;;24.05;60.29
21803;BME280;18591;47.080;22.214;2023-08-17T03:17:14;99792.69;;;24.05;60.64
21803;BME280;18591;47.080;22.214;2023-08-17T03:19:16;99808.28;;;24.04;61.20
21803;BME280;18591;47.080;22.214;2023-08-17T03:21:19;99803.34;;;23.98;61.59
21803;BME280;18591;47.080;22.214;2023-08-17T03:23:22;99789.50;;;24.00;61.73
21803;BME280;18591;47.080;22.214;2023-08-17T03:25:24;99776.47;;;23.92;62.21
21803;BME280;18591;47.080;22.214;2023-08-17T03:27:28;99772.25;;;23.88;62.32
21803;BME280;18591;47.080;22.214;2023-08-17T03:29:31;99756.09;;;23.85;62.10
21803;BME280;18591;47.080;22.214;2023-08-17T03:31:33;99738.31;;;23.89;62.11
21803;BME280;18591;47.080;22.214;2023-08-17T03:33:36;99729.38;;;23.87;62.59
21803;BME280;18591;47.080;22.214;2023-08-17T03:35:38;99729.38;;;23.87;62.13
21803;BME280;18591;47.080;22.214;2023-08-17T03:37:42;99744.53;;;23.91;61.78
21803;BME280;18591;47.080;22.214;2023-08-17T03:39:45;99772.72;;;23.93;62.10
21803;BME280;18591;47.080;22.214;2023-08-17T03:41:48;99768.25;;;23.92;61.88
21803;BME280;18591;47.080;22.214;2023-08-17T03:43:50;99765.75;;;23.89;62.01
21803;BME280;18591;47.080;22.214;2023-08-17T03:45:53;99768.38;;;23.90;62.06
21803;BME280;18591;47.080;22.214;2023-08-17T03:47:56;99765.50;;;23.92;62.26
21803;BME280;18591;47.080;22.214;2023-08-17T03:49:58;99752.25;;;23.97;61.65
21803;BME280;18591;47.080;22.214;2023-08-17T03:52:01;99746.41;;;23.90;62.34
21803;BME280;18591;47.080;22.214;2023-08-17T03:54:04;99755.38;;;23.93;62.31
21803;BME280;18591;47.080;22.214;2023-08-17T03:56:06;99755.09;;;23.96;62.25
21803;BME280;18591;47.080;22.214;2023-08-17T03:58:09;99766.38;;;23.93;62.06
21803;BME280;18591;47.080;22.214;2023-08-17T04:00:11;99776.19;;;23.95;62.05
21803;BME280;18591;47.080;22.214;2023-08-17T04:02:16;99784.56;;;23.94;61.92
21803;BME280;18591;47.080;22.214;2023-08-17T04:04:19;99790.19;;;23.92;62.33
21803;BME280;18591;47.080;22.214;2023-08-17T04:06:21;99787.72;;;23.89;62.51
21803;BME280;18591;47.080;22.214;2023-08-17T04:08:23;99779.00;;;23.84;63.23
21803;BME280;18591;47.080;22.214;2023-08-17T04:10:26;99795.22;;;23.87;62.97
21803;BME280;18591;47.080;22.214;2023-08-17T04:12:29;99791.06;;;23.93;63.06
21803;BME280;18591;47.080;22.214;2023-08-17T04:14:31;99794.78;;;23.91;63.32
21803;BME280;18591;47.080;22.214;2023-08-17T04:16:33;99788.59;;;23.89;63.36
21803;BME280;18591;47.080;22.214;2023-08-17T04:18:37;99782.78;;;23.83;63.19
21803;BME280;18591;47.080;22.214;2023-08-17T04:20:39;99786.25;;;23.85;63.06
21803;BME280;18591;47.080;22.214;2023-08-17T04:22:42;99783.81;;;23.91;62.90
21803;BME280;18591;47.080;22.214;2023-08-17T04:24:45;99787.28;;;23.94;62.59
21803;BME280;18591;47.080;22.214;2023-08-17T04:26:47;99783.69;;;23.93;62.71
21803;BME280;18591;47.080;22.214;2023-08-17T04:28:50;99774.16;;;23.87;62.64
21803;BME280;18591;47.080;22.214;2023-08-17T04:30:53;99769.66;;;23.86;62.84
21803;BME280;18591;47.080;22.214;2023-08-17T04:32:56;99784.84;;;23.90;62.86
21803;BME280;18591;47.080;22.214;2023-08-17T04:34:58;99760.00;;;23.92;62.67
21803;BME280;18591;47.080;22.214;2023-08-17T04:37:00;99750.03;;;23.91;62.99
21803;BME280;18591;47.080;22.214;2023-08-17T04:39:04;99742.41;;;23.95;62.57
21803;BME280;18591;47.080;22.214;2023-08-17T04:41:06;99753.69;;;24.01;62.27
21803;BME280;18591;47.080;22.214;2023-08-17T04:43:10;99774.06;;;24.08;62.35
21803;BME280;18591;47.080;22.214;2023-08-17T04:45:12;99781.28;;;24.09;62.36
21803;BME280;18591;47.080;22.214;2023-08-17T04:47:18;99789.56;;;24.19;62.67
21803;BME280;18591;47.080;22.214;2023-08-17T04:49:20;99789.44;;;24.21;62.44
21803;BME280;18591;47.080;22.214;2023-08-17T04:51:23;99788.97;;;24.16;62.65
21803;BME280;18591;47.080;22.214;2023-08-17T04:53:26;99795.22;;;24.18;62.50
21803;BME280;18591;47.080;22.214;2023-08-17T04:55:29;99805.03;;;24.20;62.43
21803;BME280;18591;47.080;22.214;2023-08-17T04:57:31;99808.19;;;24.16;63.46
21803;BME280;18591;47.080;22.214;2023-08-17T04:59:33;99795.22;;;24.18;63.54
21803;BME280;18591;47.080;22.214;2023-08-17T05:01:36;99797.78;;;24.19;64.01
21803;BME280;18591;47.080;22.214;2023-08-17T05:03:42;99794.75;;;24.22;63.83
21803;BME280;18591;47.080;22.214;2023-08-17T05:05:45;99801.00;;;24.24;63.61
21803;BME280;18591;47.080;22.214;2023-08-17T05:07:48;99800.25;;;24.22;63.75
21803;BME280;18591;47.080;22.214;2023-08-17T05:09:52;99797.66;;;24.21;63.46
21803;BME280;18591;47.080;22.214;2023-08-17T05:11:55;99795.09;;;24.29;63.20
21803;BME280;18591;47.080;22.214;2023-08-17T05:13:57;99794.50;;;24.35;62.64
21803;BME280;18591;47.080;22.214;2023-08-17T05:16:00;99796.84;;;24.40;62.71
21803;BME280;18591;47.080;22.214;2023-08-17T05:18:04;99799.06;;;24.46;62.82
21803;BME280;18591;47.080;22.214;2023-08-17T05:20:07;99805.00;;;24.51;62.39
21803;BME280;18591;47.080;22.214;2023-08-17T05:22:11;99816.88;;;24.61;62.18
21803;BME280;18591;47.080;22.214;2023-08-17T05:24:15;99817.47;;;24.65;62.25
21803;BME280;18591;47.080;22.214;2023-08-17T05:26:17;99818.47;;;24.64;61.94
21803;BME280;18591;47.080;22.214;2023-08-17T05:28:19;99828.03;;;24.69;61.98
21803;BME280;18591;47.080;22.214;2023-08-17T05:30:22;99828.31;;;24.76;61.75
21803;BME280;18591;47.080;22.214;2023-08-17T05:32:25;99833.81;;;24.86;61.33
21803;BME280;18591;47.080;22.214;2023-08-17T05:34:28;99828.31;;;24.86;61.16
21803;BME280;18591;47.080;22.214;2023-08-17T05:36:32;99833.69;;;24.87;61.26
21803;BME280;18591;47.080;22.214;2023-08-17T05:38:34;99827.16;;;24.88;61.69
21803;BME280;18591;47.080;22.214;2023-08-17T05:40:37;99846.28;;;24.90;61.41
21803;BME280;18591;47.080;22.214;2023-08-17T05:42:39;99841.22;;;24.95;61.48
21803;BME280;18591;47.080;22.214;2023-08-17T05:44:41;99842.22;;;25.04;61.74
21803;BME280;18591;47.080;22.214;2023-08-17T05:46:44;99842.78;;;25.07;61.28
21803;BME280;18591;47.080;22.214;2023-08-17T05:48:47;99834.28;;;25.20;61.47
21803;BME280;18591;47.080;22.214;2023-08-17T05:50:49;99835.44;;;25.27;61.23
21803;BME280;18591;47.080;22.214;2023-08-17T05:52:52;99843.41;;;25.40;60.92
21803;BME280;18591;47.080;22.214;2023-08-17T05:54:54;99831.66;;;25.48;60.80
21803;BME280;18591;47.080;22.214;2023-08-17T05:56:56;99837.47;;;25.54;60.43
21803;BME280;18591;47.080;22.214;2023-08-17T05:58:59;99835.84;;;25.61;60.37
21803;BME280;18591;47.080;22.214;2023-08-17T06:01:08;99839.88;;;25.67;59.57
21803;BME280;18591;47.080;22.214;2023-08-17T06:03:11;99841.31;;;25.71;59.69
21803;BME280;18591;47.080;22.214;2023-08-17T06:05:14;99847.53;;;25.73;59.77
21803;BME280;18591;47.080;22.214;2023-08-17T06:07:16;99845.38;;;25.77;59.63
21803;BME280;18591;47.080;22.214;2023-08-17T06:09:19;99839.72;;;25.78;59.71
21803;BME280;18591;47.080;22.214;2023-08-17T06:11:21;99830.28;;;25.81;59.61
21803;BME280;18591;47.080;22.214;2023-08-17T06:13:25;99842.03;;;25.83;59.64
21803;BME280;18591;47.080;22.214;2023-08-17T06:15:27;99854.66;;;25.85;59.49
21803;BME280;18591;47.080;22.214;2023-08-17T06:17:29;99842.88;;;25.93;59.23
21803;BME280;18591;47.080;22.214;2023-08-17T06:19:32;99847.22;;;25.96;59.54
21803;BME280;18591;47.080;22.214;2023-08-17T06:21:35;99839.09;;;25.94;59.53
21803;BME280;18591;47.080;22.214;2023-08-17T06:23:37;99835.81;;;25.91;59.52
21803;BME280;18591;47.080;22.214;2023-08-17T06:25:40;99826.25;;;25.95;59.42
21803;BME280;18591;47.080;22.214;2023-08-17T06:27:42;99832.28;;;25.98;59.58
21803;BME280;18591;47.080;22.214;2023-08-17T06:29:48;99815.06;;;25.96;59.45
21803;BME280;18591;47.080;22.214;2023-08-17T06:31:50;99820.72;;;25.95;59.87
21803;BME280;18591;47.080;22.214;2023-08-17T06:33:53;99832.16;;;26.00;59.78
21803;BME280;18591;47.080;22.214;2023-08-17T06:35:56;99846.63;;;26.02;59.78
21803;BME280;18591;47.080;22.214;2023-08-17T06:37:58;99857.19;;;26.06;59.69
21803;BME280;18591;47.080;22.214;2023-08-17T06:40:04;99857.34;;;26.05;59.34
21803;BME280;18591;47.080;22.214;2023-08-17T06:42:07;99848.91;;;26.06;59.36
21803;BME280;18591;47.080;22.214;2023-08-17T06:44:09;99845.44;;;26.04;59.55
21803;BME280;18591;47.080;22.214;2023-08-17T06:46:12;99848.91;;;26.06;59.07
21803;BME280;18591;47.080;22.214;2023-08-17T06:48:14;99839.09;;;26.04;59.58
21803;BME280;18591;47.080;22.214;2023-08-17T06:50:17;99846.34;;;26.05;59.63
21803;BME280;18591;47.080;22.214;2023-08-17T06:52:19;99860.53;;;26.10;59.51
21803;BME280;18591;47.080;22.214;2023-08-17T06:54:22;99859.63;;;26.10;59.48
21803;BME280;18591;47.080;22.214;2023-08-17T06:56:24;99881.66;;;26.10;59.34
21803;BME280;18591;47.080;22.214;2023-08-17T06:58:26;99876.88;;;26.12;59.39
21803;BME280;18591;47.080;22.214;2023-08-17T07:00:29;99864.88;;;26.03;59.48
21803;BME280;18591;47.080;22.214;2023-08-17T07:02:31;99859.53;;;26.01;59.40
21803;BME280;18591;47.080;22.214;2023-08-17T07:04:51;99856.63;;;26.03;58.83
21803;BME280;18591;47.080;22.214;2023-08-17T07:06:54;99853.16;;;26.01;59.09
21803;BME280;18591;47.080;22.214;2023-08-17T07:08:57;99847.50;;;26.02;59.21
21803;BME280;18591;47.080;22.214;2023-08-17T07:10:59;99834.91;;;26.00;59.05
21803;BME280;18591;47.080;22.214;2023-08-17T07:13:02;99834.75;;;26.01;58.94
21803;BME280;18591;47.080;22.214;2023-08-17T07:15:06;99831.13;;;26.01;59.06
21803;BME280;18591;47.080;22.214;2023-08-17T07:17:09;99846.16;;;26.06;58.97
21803;BME280;18591;47.080;22.214;2023-08-17T07:19:11;99847.94;;;26.08;59.10
21803;BME280;18591;47.080;22.214;2023-08-17T07:21:15;99840.13;;;26.03;59.12
21803;BME280;18591;47.080;22.214;2023-08-17T07:23:17;99849.94;;;26.05;58.99
21803;BME280;18591;47.080;22.214;2023-08-17T07:25:20;99858.22;;;26.05;59.16
21803;BME280;18591;47.080;22.214;2023-08-17T07:27:22;99852.53;;;26.07;58.87
21803;BME280;18591;47.080;22.214;2023-08-17T07:29:25;99858.63;;;26.11;59.12
21803;BME280;18591;47.080;22.214;2023-08-17T07:31:28;99865.28;;;26.18;58.73
21803;BME280;18591;47.080;22.214;2023-08-17T07:33:30;99867.41;;;26.24;59.04
21803;BME280;18591;47.080;22.214;2023-08-17T07:35:32;99853.19;;;26.28;58.79
21803;BME280;18591;47.080;22.214;2023-08-17T07:37:35;99852.88;;;26.32;58.63
21803;BME280;18591;47.080;22.214;2023-08-17T07:39:37;99848.25;;;26.32;58.73
21803;BME280;18591;47.080;22.214;2023-08-17T07:41:40;99846.50;;;26.31;58.30
21803;BME280;18591;47.080;22.214;2023-08-17T07:43:42;99842.41;;;26.35;58.52
21803;BME280;18591;47.080;22.214;2023-08-17T07:45:44;99835.72;;;26.38;58.30
21803;BME280;18591;47.080;22.214;2023-08-17T07:47:47;99832.53;;;26.42;58.23
21803;BME280;18591;47.080;22.214;2023-08-17T07:49:49;99825.84;;;26.45;58.12
21803;BME280;18591;47.080;22.214;2023-08-17T07:51:51;99825.09;;;26.53;57.73
21803;BME280;18591;47.080;22.214;2023-08-17T07:53:54;99830.47;;;26.54;57.67
21803;BME280;18591;47.080;22.214;2023-08-17T07:55:56;99847.69;;;26.56;57.77
21803;BME280;18591;47.080;22.214;2023-08-17T07:57:59;99856.53;;;26.60;58.12
21803;BME280;18591;47.080;22.214;2023-08-17T08:00:02;99874.66;;;26.62;58.22
21803;BME280;18591;47.080;22.214;2023-08-17T08:02:08;99852.94;;;26.59;57.87
21803;BME280;18591;47.080;22.214;2023-08-17T08:04:11;99843.75;;;26.59;57.61
21803;BME280;18591;47.080;22.214;2023-08-17T08:06:13;99838.97;;;26.61;57.74
21803;BME280;18591;47.080;22.214;2023-08-17T08:08:15;99827.50;;;26.65;57.86
21803;BME280;18591;47.080;22.214;2023-08-17T08:10:19;99822.94;;;26.74;57.68
21803;BME280;18591;47.080;22.214;2023-08-17T08:12:22;99814.91;;;26.81;57.73
21803;BME280;18591;47.080;22.214;2023-08-17T08:14:25;99818.59;;;26.89;57.33
21803;BME280;18591;47.080;22.214;2023-08-17T08:16:27;99820.75;;;26.96;57.50
21803;BME280;18591;47.080;22.214;2023-08-17T08:18:32;99822.16;;;27.00;57.60
21803;BME280;18591;47.080;22.214;2023-08-17T08:20:35;99831.41;;;27.08;57.58
21803;BME280;18591;47.080;22.214;2023-08-17T08:22:37;99833.69;;;27.13;57.63
21803;BME280;18591;47.080;22.214;2023-08-17T08:24:40;99833.50;;;27.14;57.07
21803;BME280;18591;47.080;22.214;2023-08-17T08:26:44;99831.78;;;27.13;57.09
21803;BME280;18591;47.080;22.214;2023-08-17T08:28:47;99831.19;;;27.20;57.34
21803;BME280;18591;47.080;22.214;2023-08-17T08:30:49;99827.47;;;27.29;57.15
21803;BME280;18591;47.080;22.214;2023-08-17T08:32:51;99824.72;;;27.29;56.73
21803;BME280;18591;47.080;22.214;2023-08-17T08:34:54;99827.69;;;27.35;57.01
21803;BME280;18591;47.080;22.214;2023-08-17T08:36:56;99820.84;;;27.40;57.02
21803;BME280;18591;47.080;22.214;2023-08-17T08:38:59;99827.59;;;27.45;57.20
21803;BME280;18591;47.080;22.214;2023-08-17T08:41:02;99828.84;;;27.51;57.05
21803;BME280;18591;47.080;22.214;2023-08-17T08:43:05;99822.03;;;27.63;56.82
21803;BME280;18591;47.080;22.214;2023-08-17T08:45:07;99829.19;;;27.74;56.74
21803;BME280;18591;47.080;22.214;2023-08-17T08:47:10;99830.44;;;27.79;56.53
21803;BME280;18591;47.080;22.214;2023-08-17T08:49:19;99827.53;;;27.81;56.25
21803;BME280;18591;47.080;22.214;2023-08-17T08:51:27;99826.34;;;27.84;55.61
21803;BME280;18591;47.080;22.214;2023-08-17T08:53:38;99819.63;;;27.86;55.34
21803;BME280;18591;47.080;22.214;2023-08-17T08:55:55;99821.59;;;27.94;56.05
21803;BME280;18591;47.080;22.214;2023-08-17T08:57:58;99820.28;;;28.06;56.15
21803;BME280;18591;47.080;22.214;2023-08-17T09:00:01;99816.16;;;28.10;56.24
21803;BME280;18591;47.080;22.214;2023-08-17T09:02:04;99818.25;;;28.16;56.08
21803;BME280;18591;47.080;22.214;2023-08-17T09:04:06;99815.53;;;28.25;55.97
21803;BME280;18591;47.080;22.214;2023-08-17T09:06:09;99814.84;;;28.31;56.19
21803;BME280;18591;47.080;22.214;2023-08-17T09:08:13;99806.41;;;28.32;55.27
21803;BME280;18591;47.080;22.214;2023-08-17T09:10:18;99801.41;;;28.36;54.87
21803;BME280;18591;47.080;22.214;2023-08-17T09:12:21;99802.81;;;28.40;54.57
21803;BME280;18591;47.080;22.214;2023-08-17T09:14:40;99799.59;;;28.44;54.68
21803;BME280;18591;47.080;22.214;2023-08-17T09:16:43;99805.13;;;28.53;54.48
21803;BME280;18591;47.080;22.214;2023-08-17T09:18:45;99796.16;;;28.59;54.33
21803;BME280;18591;47.080;22.214;2023-08-17T09:20:48;99795.31;;;28.66;54.14
21803;BME280;18591;47.080;22.214;2023-08-17T09:22:53;99789.28;;;28.79;54.28
21803;BME280;18591;47.080;22.214;2023-08-17T09:24:56;99797.28;;;28.91;54.49
21803;BME280;18591;47.080;22.214;2023-08-17T09:27:04;99790.75;;;29.08;53.28
21803;BME280;18591;47.080;22.214;2023-08-17T09:29:18;99783.31;;;29.25;53.07
21803;BME280;18591;47.080;22.214;2023-08-17T09:31:21;99783.50;;;29.40;52.82
21803;BME280;18591;47.080;22.214;2023-08-17T09:33:25;99789.00;;;29.56;52.90
21803;BME280;18591;47.080;22.214;2023-08-17T09:35:31;99779.84;;;29.72;52.08
21803;BME280;18591;47.080;22.214;2023-08-17T09:37:34;99773.78;;;29.77;50.74
21803;BME280;18591;47.080;22.214;2023-08-17T09:39:37;99783.63;;;29.79;51.10
21803;BME280;18591;47.080;22.214;2023-08-17T09:41:41;99781.38;;;29.83;51.50
21803;BME280;18591;47.080;22.214;2023-08-17T09:43:46;99771.34;;;29.82;51.68
21803;BME280;18591;47.080;22.214;2023-08-17T09:45:49;99772.91;;;29.76;51.21
21803;BME280;18591;47.080;22.214;2023-08-17T09:47:52;99771.69;;;29.79;51.37
21803;BME280;18591;47.080;22.214;2023-08-17T09:49:55;99767.00;;;29.79;49.44
21803;BME280;18591;47.080;22.214;2023-08-17T09:51:59;99764.56;;;29.84;49.39
21803;BME280;18591;47.080;22.214;2023-08-17T09:54:03;99759.66;;;30.03;48.72
21803;BME280;18591;47.080;22.214;2023-08-17T09:56:09;99763.03;;;30.21;47.72
21803;BME280;18591;47.080;22.214;2023-08-17T09:58:21;99761.97;;;30.38;47.68
21803;BME280;18591;47.080;22.214;2023-08-17T10:00:24;99764.34;;;30.50;45.73
21803;BME280;18591;47.080;22.214;2023-08-17T10:02:28;99764.84;;;30.53;46.67
21803;BME280;18591;47.080;22.214;2023-08-17T10:04:32;99766.53;;;30.54;45.77
21803;BME280;18591;47.080;22.214;2023-08-17T10:06:39;99763.13;;;30.52;45.25
21803;BME280;18591;47.080;22.214;2023-08-17T10:08:46;99761.31;;;30.59;45.52
21803;BME280;18591;47.080;22.214;2023-08-17T10:10:50;99766.94;;;30.74;46.00
21803;BME280;18591;47.080;22.214;2023-08-17T10:13:09;99764.66;;;30.86;44.73
21803;BME280;18591;47.080;22.214;2023-08-17T10:15:13;99767.28;;;31.02;45.48
21803;BME280;18591;47.080;22.214;2023-08-17T10:17:26;99766.50;;;31.17;44.54
21803;BME280;18591;47.080;22.214;2023-08-17T10:19:39;99769.19;;;31.25;44.11
21803;BME280;18591;47.080;22.214;2023-08-17T10:24:22;99764.19;;;31.43;44.83
21803;BME280;18591;47.080;22.214;2023-08-17T10:26:25;99763.81;;;31.46;43.71
21803;BME280;18591;47.080;22.214;2023-08-17T10:28:28;99755.31;;;31.48;43.80
21803;BME280;18591;47.080;22.214;2023-08-17T10:30:33;99759.06;;;31.55;44.06
21803;BME280;18591;47.080;22.214;2023-08-17T10:32:36;99757.06;;;31.64;43.44
21803;BME280;18591;47.080;22.214;2023-08-17T10:34:39;99754.19;;;31.72;43.44
21803;BME280;18591;47.080;22.214;2023-08-17T10:36:41;99755.16;;;31.79;43.34
21803;BME280;18591;47.080;22.214;2023-08-17T10:38:44;99754.59;;;31.84;43.46
21803;BME280;18591;47.080;22.214;2023-08-17T10:41:08;99747.22;;;31.91;42.26
21803;BME280;18591;47.080;22.214;2023-08-17T10:43:10;99746.06;;;32.00;43.07
21803;BME280;18591;47.080;22.214;2023-08-17T10:45:29;99745.78;;;32.10;42.63
21803;BME280;18591;47.080;22.214;2023-08-17T10:47:33;99739.16;;;32.26;42.90
21803;BME280;18591;47.080;22.214;2023-08-17T10:49:37;99734.34;;;32.35;42.72
21803;BME280;18591;47.080;22.214;2023-08-17T10:51:59;99734.81;;;32.38;41.37
21803;BME280;18591;47.080;22.214;2023-08-17T10:54:03;99740.25;;;32.46;42.02